Time;durP1;ratioP1;P1;durP2;ratioP2;P2;SDS_P1;SDS_P2;PMS_P1;PMS_P2;Temp;Humidity;BMP_temperature;BMP_pressure;BME280_temperature;BME280_humidity;BME280_pressure;Samples;Min_cycle;Max_cycle;Signal;HPM_P1;HPM_P2
2021/04/05 00:01:02;;;;;;;21.38;9.15;;;7.50;86.50;;;;;;5052540;28;20051;-66
2021/04/05 00:03:28;;;;;;;24.75;9.27;;;7.50;86.60;;;;;;5051964;28;20021;-66
2021/04/05 00:05:54;;;;;;;22.20;9.68;;;7.50;86.70;;;;;;5051852;28;20025;-66
2021/04/05 00:08:19;;;;;;;25.52;10.88;;;7.60;86.80;;;;;;5052462;28;20476;-66
2021/04/05 00:10:52;;;;;;;28.52;9.73;;;7.50;86.80;;;;;;5051981;28;20499;-66
2021/04/05 00:13:29;;;;;;;25.55;9.20;;;7.60;87.50;;;;;;5052505;28;20037;-66
2021/04/05 00:15:56;;;;;;;22.88;9.20;;;7.60;87.00;;;;;;5052535;28;20033;-66
2021/04/05 00:18:26;;;;;;;29.45;10.43;;;7.60;87.20;;;;;;5066753;28;21568;-65
2021/04/05 00:21:02;;;;;;;28.45;9.32;;;7.60;87.30;;;;;;5071950;28;20041;-65
2021/04/05 00:23:28;;;;;;;20.90;7.65;;;7.60;87.20;;;;;;5072423;28;20037;-65
2021/04/05 00:25:53;;;;;;;19.98;8.77;;;7.60;87.10;;;;;;5071757;28;20020;-65
2021/04/05 00:28:19;;;;;;;20.65;7.43;;;7.70;87.00;;;;;;5072294;28;20033;-66
2021/04/05 00:30:45;;;;;;;17.30;7.68;;;7.70;87.00;;;;;;5072241;28;20021;-65
2021/04/05 00:33:11;;;;;;;25.13;8.75;;;7.80;87.00;;;;;;5071656;28;20025;-65
2021/04/05 00:35:39;;;;;;;28.38;9.98;;;7.80;87.00;;;;;;5072456;28;20036;-65
2021/04/05 00:38:07;;;;;;;34.03;8.65;;;7.80;86.90;;;;;;5072253;28;20027;-65
2021/04/05 00:40:45;;;;;;;22.10;7.38;;;7.90;86.90;;;;;;5071657;28;20039;-65
2021/04/05 00:43:13;;;;;;;24.05;7.50;;;7.90;86.80;;;;;;5057810;28;20479;-65
2021/04/05 00:45:39;;;;;;;20.67;8.32;;;7.90;86.80;;;;;;5071548;28;20032;-65
2021/04/05 00:48:06;;;;;;;26.15;9.60;;;8.00;87.50;;;;;;5071771;28;20131;-65
2021/04/05 00:50:40;;;;;;;27.98;8.95;;;8.00;86.90;;;;;;5072187;28;20078;-65
2021/04/05 00:53:09;;;;;;;21.15;8.15;;;8.00;87.10;;;;;;5071233;28;20450;-66
2021/04/05 00:55:35;;;;;;;31.80;9.30;;;8.00;87.20;;;;;;5072243;28;20028;-65
2021/04/05 00:58:03;;;;;;;30.08;8.43;;;8.00;87.40;;;;;;5071832;28;20033;-65
2021/04/05 01:00:45;;;;;;;28.67;10.07;;;8.00;87.60;;;;;;5071396;28;20074;-65
2021/04/05 01:03:14;;;;;;;23.33;7.25;;;8.10;87.70;;;;;;5057629;28;20121;-65
2021/04/05 01:05:40;;;;;;;26.92;8.05;;;8.10;87.80;;;;;;5072241;28;20074;-65
2021/04/05 01:08:10;;;;;;;31.13;8.88;;;8.10;87.90;;;;;;5071185;28;20040;-66
2021/04/05 01:10:37;;;;;;;25.10;9.13;;;8.10;87.90;;;;;;5071776;28;20120;-65
2021/04/05 01:13:04;;;;;;;26.50;10.23;;;8.10;87.80;;;;;;5072000;28;20480;-65
2021/04/05 01:15:29;;;;;;;23.75;8.40;;;8.10;88.00;;;;;;5071272;28;20028;-65
2021/04/05 01:17:55;;;;;;;27.90;10.15;;;8.10;88.20;;;;;;5074897;28;20541;-66
2021/04/05 01:20:21;;;;;;;25.77;9.13;;;8.10;88.30;;;;;;5075360;28;20055;-65
2021/04/05 01:22:49;;;;;;;24.42;9.25;;;8.20;88.60;;;;;;5074750;28;20032;-66
2021/04/05 01:25:17;;;;;;;26.73;9.80;;;8.10;88.90;;;;;;5075440;28;20033;-66
2021/04/05 01:27:45;;;;;;;27.38;9.90;;;8.10;88.90;;;;;;5074875;28;20032;-65
2021/04/05 01:30:43;;;;;;;30.95;9.38;;;8.10;89.00;;;;;;5075369;28;20033;-66
2021/04/05 01:33:30;;;;;;;26.50;8.73;;;8.10;89.00;;;;;;5074650;28;20459;-65
2021/04/05 01:35:56;;;;;;;26.58;8.43;;;8.10;89.00;;;;;;5074385;28;20085;-66
2021/04/05 01:38:29;;;;;;;25.27;8.15;;;8.10;89.00;;;;;;5075370;28;20029;-66
2021/04/05 01:41:04;;;;;;;23.55;8.15;;;8.10;89.00;;;;;;5057188;28;20029;-65
2021/04/05 01:43:30;;;;;;;20.10;6.35;;;8.10;88.90;;;;;;5074553;28;20036;-66
2021/04/05 01:45:58;;;;;;;24.65;9.02;;;8.20;88.80;;;;;;5074926;28;20112;-65
2021/04/05 01:48:26;;;;;;;17.98;7.05;;;8.20;88.70;;;;;;5074827;28;20052;-66
2021/04/05 01:51:04;;;;;;;30.55;8.63;;;8.20;88.50;;;;;;5074300;28;20032;-66
2021/04/05 01:53:31;;;;;;;26.42;7.97;;;8.20;88.50;;;;;;5075096;28;20036;-65
2021/04/05 01:56:01;;;;;;;24.83;7.82;;;8.20;88.70;;;;;;5056232;28;20035;-65
2021/04/05 01:58:27;;;;;;;21.30;8.90;;;8.20;88.80;;;;;;5074828;28;20035;-65
2021/04/05 02:00:53;;;;;;;20.77;6.68;;;8.20;88.50;;;;;;5075074;28;20036;-66
2021/04/05 02:03:19;;;;;;;21.20;6.88;;;8.30;88.50;;;;;;5073916;28;20029;-65
2021/04/05 02:05:56;;;;;;;13.55;5.45;;;8.30;88.20;;;;;;5074975;28;20107;-66
2021/04/05 02:08:23;;;;;;;22.48;7.25;;;8.30;88.20;;;;;;5074499;28;20032;-66
2021/04/05 02:10:51;;;;;;;20.77;7.43;;;8.40;87.90;;;;;;5073969;28;20036;-65
2021/04/05 02:13:21;;;;;;;27.63;8.00;;;8.40;88.10;;;;;;5074600;28;20024;-65
2021/04/05 02:15:52;;;;;;;19.10;6.43;;;8.40;88.30;;;;;;5074529;28;20471;-65
2021/04/05 02:18:20;;;;;;;17.88;5.82;;;8.40;88.30;;;;;;5073657;28;20035;-65
2021/04/05 02:20:47;;;;;;;16.95;6.88;;;8.50;88.40;;;;;;5074550;28;20028;-65
2021/04/05 02:23:13;;;;;;;17.75;6.32;;;8.50;88.60;;;;;;5074117;28;20072;-65
2021/04/05 02:26:05;;;;;;;15.82;5.80;;;8.40;88.80;;;;;;5073511;28;20024;-65
2021/04/05 02:28:28;;;;;;;18.75;5.20;;;8.40;88.80;;;;;;5073411;28;20043;-65
2021/04/05 02:30:55;;;;;;;26.30;6.32;;;8.50;88.80;;;;;;5073927;28;20025;-65
2021/04/05 02:33:22;;;;;;;23.30;6.18;;;8.50;88.70;;;;;;5074164;28;20452;-65
2021/04/05 02:35:48;;;;;;;16.73;5.55;;;8.50;88.50;;;;;;5073894;28;20024;-65
2021/04/05 02:38:15;;;;;;;19.67;4.35;;;8.50;88.30;;;;;;5073557;28;20020;-65
2021/04/05 02:40:42;;;;;;;17.20;5.20;;;8.60;88.20;;;;;;5074119;28;20446;-66
2021/04/05 02:43:08;;;;;;;18.55;6.00;;;8.60;88.00;;;;;;5074207;28;20021;-65
2021/04/05 02:45:34;;;;;;;18.52;5.13;;;8.60;87.80;;;;;;5073173;28;20460;-65
2021/04/05 02:48:01;;;;;;;17.85;4.60;;;8.70;87.60;;;;;;5073433;28;20054;-65
2021/04/05 02:50:30;;;;;;;21.55;6.70;;;8.70;87.50;;;;;;5073825;28;20025;-65
2021/04/05 02:52:59;;;;;;;17.88;5.93;;;8.70;87.30;;;;;;5073122;28;20086;-65
2021/04/05 02:55:28;;;;;;;13.98;5.80;;;8.70;87.40;;;;;;5073846;28;20025;-65
2021/04/05 02:57:56;;;;;;;21.55;6.22;;;8.70;87.30;;;;;;5058901;28;20041;-65
2021/04/05 03:00:23;;;;;;;11.43;3.30;;;8.60;87.40;;;;;;5054978;28;20034;-65
2021/04/05 03:02:51;;;;;;;7.03;2.22;;;8.70;87.00;;;;;;5073375;28;20476;-65
2021/04/05 03:05:22;;;;;;;12.40;2.45;;;8.70;86.70;;;;;;5073850;28;20100;-65
2021/04/05 03:07:50;;;;;;;2.72;1.23;;;8.80;86.50;;;;;;5072517;28;20124;-65
2021/04/05 03:10:17;;;;;;;11.73;2.13;;;8.80;86.20;;;;;;5073583;28;20039;-65
2021/04/05 03:12:44;;;;;;;16.90;2.55;;;8.90;85.90;;;;;;5073476;28;20028;-65
2021/04/05 03:15:13;;;;;;;7.85;1.70;;;8.90;85.50;;;;;;5072480;28;20028;-65
2021/04/05 03:17:40;;;;;;;13.77;3.88;;;9.00;85.30;;;;;;5073252;28;20044;-65
2021/04/05 03:20:19;;;;;;;11.40;2.65;;;9.00;84.80;;;;;;5073057;28;20025;-65
2021/04/05 03:22:45;;;;;;;14.55;2.63;;;9.10;84.50;;;;;;5073176;28;20396;-65
2021/04/05 03:25:21;;;;;;;4.93;1.63;;;9.00;83.60;;;;;;5072933;28;20090;-65
2021/04/05 03:27:49;;;;;;;16.30;3.45;;;9.00;83.70;;;;;;5065231;28;20068;-65
2021/04/05 03:30:24;;;;;;;12.68;2.83;;;9.10;83.10;;;;;;5066437;28;20111;-65
2021/04/05 03:32:56;;;;;;;4.63;1.42;;;9.10;83.00;;;;;;5059625;28;20048;-65
2021/04/05 03:35:26;;;;;;;3.40;1.55;;;9.10;82.50;;;;;;5072306;28;20028;-65
2021/04/05 03:37:54;;;;;;;4.93;1.25;;;9.10;82.60;;;;;;5073019;28;20119;-65
2021/04/05 03:40:20;;;;;;;7.40;0.85;;;9.10;82.80;;;;;;5072356;28;20791;-65
2021/04/05 03:42:52;;;;;;;6.38;1.40;;;9.00;82.60;;;;;;5072090;28;20035;-66
2021/04/05 03:45:35;;;;;;;2.47;0.70;;;9.00;82.40;;;;;;5072878;28;20036;-66
2021/04/05 03:48:17;;;;;;;1.98;0.80;;;9.00;82.30;;;;;;5072655;28;20056;-65
2021/04/05 03:51:01;;;;;;;5.63;1.00;;;8.90;82.20;;;;;;5072850;28;20028;-65
2021/04/05 03:53:37;;;;;;;;;;;8.90;81.50;;;;;;5061833;28;20029;-65
2021/04/05 03:56:17;;;;;;;11.23;1.67;;;8.90;81.30;;;;;;5072136;28;19908;-66
2021/04/05 03:58:52;;;;;;;4.10;1.08;;;8.90;81.00;;;;;;5072797;28;20476;-65
2021/04/05 04:01:28;;;;;;;1.20;0.70;;;8.90;80.60;;;;;;5072577;28;20037;-65
2021/04/05 04:04:15;;;;;;;1.02;0.65;;;8.80;81.10;;;;;;5072196;28;20115;-65
2021/04/05 04:09:14;;;;;;;1.98;0.52;;;8.80;81.80;;;;;;5072575;28;20051;-65
2021/04/05 04:11:44;;;;;;;2.05;0.52;;;8.80;81.30;;;;;;5071746;28;20538;-65
2021/04/05 04:14:10;;;;;;;2.70;0.80;;;8.80;81.00;;;;;;5072753;28;20056;-65
2021/04/05 04:16:37;;;;;;;1.75;0.70;;;8.80;80.10;;;;;;5071851;28;20451;-65
2021/04/05 04:19:05;;;;;;;1.13;0.50;;;8.70;79.80;;;;;;5072719;28;20028;-65
2021/04/05 04:21:31;;;;;;;2.53;1.02;;;8.60;80.00;;;;;;5072300;28;20127;-65
2021/04/05 04:23:58;;;;;;;5.05;0.90;;;8.50;79.50;;;;;;5071862;28;20116;-65
2021/04/05 04:26:25;;;;;;;5.47;1.38;;;8.50;80.10;;;;;;5054095;28;20040;-65
2021/04/05 04:28:51;;;;;;;3.00;0.90;;;8.50;80.20;;;;;;5072354;28;20766;-65
2021/04/05 04:31:20;;;;;;;12.35;2.50;;;8.40;80.50;;;;;;5063894;28;20091;-66
2021/04/05 04:33:47;;;;;;;2.47;0.65;;;8.40;80.70;;;;;;5066635;28;20044;-65
2021/04/05 04:36:21;;;;;;;1.42;0.90;;;8.50;80.90;;;;;;5072420;28;20035;-65
2021/04/05 04:38:46;;;;;;;0.50;0.50;;;8.50;81.00;;;;;;5071581;28;20020;-65
2021/04/05 04:41:20;;;;;;;3.17;0.80;;;8.50;80.80;;;;;;5072387;28;20055;-65
2021/04/05 04:43:45;;;;;;;5.43;1.10;;;8.50;80.80;;;;;;5072528;28;20055;-65
2021/04/05 04:46:11;;;;;;;0.77;0.60;;;8.50;80.80;;;;;;5071473;28;20468;-65
2021/04/05 04:48:37;;;;;;;0.82;0.57;;;8.40;80.70;;;;;;5072135;28;20572;-65
2021/04/05 04:51:02;;;;;;;2.70;0.82;;;8.40;80.50;;;;;;5072176;28;20029;-65
2021/04/05 04:53:28;;;;;;;7.15;1.02;;;8.40;80.40;;;;;;5075316;28;20039;-65
2021/04/05 04:55:54;;;;;;;4.72;0.80;;;8.30;80.50;;;;;;5076032;28;20059;-65
2021/04/05 04:58:20;;;;;;;2.85;0.70;;;8.30;80.50;;;;;;5075972;28;20036;-65
2021/04/05 05:00:45;;;;;;;5.63;0.95;;;8.30;80.60;;;;;;5075486;28;20027;-65
2021/04/05 05:03:16;;;;;;;2.20;0.77;;;8.30;80.30;;;;;;5075773;28;20033;-65
2021/04/05 05:05:43;;;;;;;0.40;0.40;;;8.20;80.10;;;;;;5075105;28;20024;-65
2021/04/05 05:08:09;;;;;;;7.20;1.48;;;8.20;80.10;;;;;;5075508;28;20040;-65
2021/04/05 05:10:35;;;;;;;2.15;0.98;;;8.20;80.20;;;;;;5075971;28;20032;-66
2021/04/05 05:13:02;;;;;;;2.70;0.80;;;8.20;80.10;;;;;;5075127;28;20033;-65
2021/04/05 05:15:30;;;;;;;3.33;1.10;;;8.10;80.00;;;;;;5075820;28;20028;-65
2021/04/05 05:17:57;;;;;;;6.88;0.90;;;8.10;79.60;;;;;;5075615;28;20036;-65
2021/04/05 05:20:23;;;;;;;4.28;1.35;;;8.10;79.40;;;;;;5074898;28;20024;-65
2021/04/05 05:22:53;;;;;;;9.80;1.52;;;8.00;78.80;;;;;;5075829;28;20055;-65
2021/04/05 05:25:21;;;;;;;5.63;1.30;;;8.00;77.60;;;;;;5075687;28;20020;-65
2021/04/05 05:27:54;;;;;;;1.75;0.80;;;7.90;78.00;;;;;;5074667;28;20036;-65
2021/04/05 05:30:21;;;;;;;5.68;1.42;;;7.80;77.80;;;;;;5075392;28;20058;-65
2021/04/05 05:32:49;;;;;;;2.53;0.82;;;7.80;78.60;;;;;;5075426;28;20094;-65
2021/04/05 05:35:16;;;;;;;2.88;0.75;;;7.70;79.00;;;;;;5074926;28;20086;-65
2021/04/05 05:37:42;;;;;;;4.40;1.20;;;7.70;79.20;;;;;;5075399;28;20039;-65
2021/04/05 05:40:13;;;;;;;6.18;1.33;;;7.60;79.00;;;;;;5075476;28;20407;-65
2021/04/05 05:43:02;;;;;;;8.38;1.42;;;7.60;79.10;;;;;;5056521;28;20377;-65
2021/04/05 05:45:33;;;;;;;1.50;1.10;;;7.60;78.90;;;;;;5062292;28;20129;-65
2021/04/05 05:48:23;;;;;;;3.92;1.45;;;7.50;78.10;;;;;;5073637;28;20056;-65
2021/04/05 05:51:11;;;;;;;4.40;1.00;;;7.50;77.70;;;;;;5074942;28;20028;-65
2021/04/05 05:54:05;;;;;;;3.30;0.75;;;7.40;77.70;;;;;;5074990;28;20016;-65
2021/04/05 05:56:46;;;;;;;8.23;2.20;;;7.40;77.80;;;;;;5056218;28;20033;-65
2021/04/05 05:59:22;;;;;;;8.98;1.65;;;7.40;72.60;;;;;;5075146;28;20068;-65
2021/04/05 06:02:27;;;;;;;9.02;1.85;;;7.30;73.80;;;;;;5074877;28;20357;-65
2021/04/05 06:05:12;;;;;;;5.43;2.92;;;7.20;72.90;;;;;;5047222;28;20464;-65
2021/04/05 06:07:47;;;;;;;5.47;1.70;;;7.20;72.00;;;;;;5074796;28;20037;-65
2021/04/05 06:10:20;;;;;;;10.32;1.70;;;7.10;73.00;;;;;;5074030;28;20016;-65
2021/04/05 06:13:01;;;;;;;17.45;3.63;;;7.00;72.50;;;;;;5074657;28;20037;-65
2021/04/05 06:15:29;;;;;;;14.88;2.80;;;7.10;70.50;;;;;;5062310;28;20103;-65
2021/04/05 06:18:01;;;;;;;16.70;3.15;;;7.00;70.50;;;;;;5041677;28;20036;-65
2021/04/05 06:20:58;;;;;;;11.48;2.40;;;7.00;72.90;;;;;;5073502;28;20082;-65
2021/04/05 06:23:38;;;;;;;8.35;1.75;;;7.00;73.20;;;;;;5055129;28;20049;-65
2021/04/05 06:26:10;;;;;;;11.98;2.80;;;6.90;73.50;;;;;;5071894;28;20040;-66
2021/04/05 06:29:02;;;;;;;17.52;3.17;;;6.90;71.40;;;;;;5073752;28;20078;-65
2021/04/05 06:32:05;;;;;;;13.30;3.55;;;6.90;70.60;;;;;;5063423;28;20025;-65
2021/04/05 06:34:34;;;;;;;11.82;2.88;;;6.80;68.80;;;;;;5064065;28;20037;-65
2021/04/05 06:37:27;;;;;;;12.70;2.42;;;6.70;70.20;;;;;;5064358;28;20025;-65
2021/04/05 06:39:59;;;;;;;2.75;1.15;;;6.60;72.10;;;;;;5064337;28;20024;-65
2021/04/05 06:42:49;;;;;;;12.18;2.28;;;6.60;74.10;;;;;;5069629;28;20359;-67
2021/04/05 06:45:30;;;;;;;9.70;1.70;;;6.60;72.40;;;;;;5072636;28;20036;-70
2021/04/05 06:48:17;;;;;;;4.15;1.20;;;6.60;71.10;;;;;;5072021;28;20135;-70
2021/04/05 06:50:59;;;;;;;1.88;0.73;;;6.60;72.10;;;;;;5064171;28;20100;-66
2021/04/05 06:54:05;;;;;;;7.18;1.70;;;6.60;72.30;;;;;;5072188;28;20025;-66
2021/04/05 06:57:08;;;;;;;10.60;3.28;;;6.60;71.80;;;;;;5073370;28;20023;-66
2021/04/05 06:59:55;;;;;;;6.35;1.60;;;6.60;72.10;;;;;;5054749;28;20048;-67
2021/04/05 07:02:59;;;;;;;4.35;1.63;;;6.70;70.30;;;;;;5067500;28;20047;-67
2021/04/05 07:06:03;;;;;;;3.95;0.98;;;6.70;71.50;;;;;;5054973;28;20029;-66
2021/04/05 07:08:38;;;;;;;1.77;1.00;;;6.70;69.10;;;;;;5054891;28;20185;-67
2021/04/05 07:11:13;;;;;;;5.15;1.15;;;6.70;69.60;;;;;;5053068;28;20029;-66
2021/04/05 07:14:25;;;;;;;7.43;1.42;;;6.70;69.70;;;;;;5058007;28;20033;-67
2021/04/05 07:17:03;;;;;;;2.58;1.27;;;6.70;69.40;;;;;;5054594;28;20635;-67
2021/04/05 07:19:34;;;;;;;8.77;1.52;;;6.60;73.10;;;;;;5053471;28;20033;-66
2021/04/05 07:22:31;;;;;;;3.85;1.00;;;6.70;74.50;;;;;;5058602;28;20028;-66
2021/04/05 07:25:14;;;;;;;1.65;0.73;;;6.70;75.10;;;;;;5035626;28;20040;-67
2021/04/05 07:27:59;;;;;;;3.95;1.20;;;6.70;75.50;;;;;;5058801;28;20396;-66
2021/04/05 07:30:46;;;;;;;1.27;0.63;;;6.70;75.70;;;;;;5069099;28;20499;-66
2021/04/05 07:33:34;;;;;;;1.00;0.77;;;6.70;75.90;;;;;;5069849;28;20491;-67
2021/04/05 07:36:34;;;;;;;3.58;1.23;;;6.70;76.40;;;;;;5071183;28;20776;-70
2021/04/05 07:39:09;;;;;;;3.20;0.95;;;6.70;76.50;;;;;;5067592;28;20024;-66
2021/04/05 07:41:46;;;;;;;1.92;0.82;;;6.70;76.40;;;;;;5071641;28;20029;-66
2021/04/05 07:44:32;;;;;;;4.97;1.25;;;6.60;76.40;;;;;;5071500;28;20070;-66
2021/04/05 07:47:13;;;;;;;4.93;1.23;;;6.70;76.60;;;;;;5071656;28;20056;-66
2021/04/05 07:50:19;;;;;;;3.20;1.10;;;6.60;76.70;;;;;;5070798;28;20426;-66
2021/04/05 07:53:21;;;;;;;4.30;1.35;;;6.60;77.00;;;;;;5056885;28;20120;-66
2021/04/05 07:55:48;;;;;;;7.88;1.55;;;6.60;76.60;;;;;;5070981;28;20383;-66
2021/04/05 07:58:45;;;;;;;5.07;1.27;;;6.60;76.80;;;;;;5072244;28;20108;-66
2021/04/05 08:01:48;;;;;;;4.32;1.13;;;6.60;77.30;;;;;;5072491;28;20115;-66
2021/04/05 08:04:27;;;;;;;8.90;1.90;;;6.60;77.10;;;;;;5060170;28;20082;-66
2021/04/05 08:07:02;;;;;;;8.55;1.98;;;6.60;76.80;;;;;;5068855;28;20079;-66
2021/04/05 08:09:56;;;;;;;6.40;2.15;;;6.70;76.10;;;;;;5072057;28;20036;-66
2021/04/05 08:12:49;;;;;;;7.38;1.98;;;6.60;75.30;;;;;;5061544;28;20052;-66
2021/04/05 08:15:20;;;;;;;1.77;0.90;;;6.50;75.20;;;;;;5072310;28;20024;-67
2021/04/05 08:17:58;;;;;;;11.95;2.03;;;6.40;75.80;;;;;;5072162;28;20070;-67
2021/04/05 08:20:46;;;;;;;8.07;1.35;;;6.40;76.10;;;;;;5068245;28;20388;-66
2021/04/05 08:23:22;;;;;;;10.43;2.45;;;6.40;76.10;;;;;;5071620;28;20044;-66
2021/04/05 08:26:28;;;;;;;5.15;1.95;;;6.40;75.50;;;;;;5072384;28;20081;-67
2021/04/05 08:29:14;;;;;;;4.90;1.60;;;6.30;75.50;;;;;;5076660;28;20438;-66
2021/04/05 08:32:09;;;;;;;7.63;2.03;;;6.40;73.60;;;;;;5058177;28;20024;-66
2021/04/05 08:34:53;;;;;;;7.28;1.67;;;6.30;73.40;;;;;;5063813;28;20048;-66
2021/04/05 08:37:47;;;;;;;13.15;3.53;;;6.30;73.20;;;;;;5075685;28;20035;-66
2021/04/05 08:40:31;;;;;;;9.20;2.10;;;6.20;64.50;;;;;;5076452;28;20525;-66
2021/04/05 08:43:15;;;;;;;20.33;3.40;;;6.10;67.70;;;;;;5076579;28;20030;-66
2021/04/05 08:45:45;;;;;;;11.27;2.67;;;6.00;63.00;;;;;;5075561;28;20032;-66
2021/04/05 08:48:19;;;;;;;10.30;2.65;;;6.00;64.60;;;;;;5076194;28;20101;-66
2021/04/05 08:50:51;;;;;;;8.40;2.45;;;5.90;66.40;;;;;;5075289;28;20032;-66
2021/04/05 08:53:19;;;;;;;20.45;2.22;;;5.90;64.00;;;;;;5076440;28;20127;-67
2021/04/05 08:55:46;;;;;;;7.38;2.00;;;5.80;63.20;;;;;;5076361;28;20115;-67
2021/04/05 08:58:39;;;;;;;12.57;1.90;;;5.80;64.50;;;;;;5075369;28;20024;-66
2021/04/05 09:01:09;;;;;;;10.18;1.50;;;5.80;66.90;;;;;;5075915;28;20029;-66
2021/04/05 09:03:37;;;;;;;11.43;2.47;;;5.70;68.30;;;;;;5076077;28;20047;-66
2021/04/05 09:06:18;;;;;;;9.93;2.03;;;5.80;68.00;;;;;;5074973;28;20388;-67
2021/04/05 09:08:45;;;;;;;10.27;1.92;;;5.80;66.30;;;;;;5075883;28;20480;-66
2021/04/05 09:11:13;;;;;;;7.03;1.48;;;5.80;66.90;;;;;;5075704;28;20028;-66
2021/04/05 09:13:45;;;;;;;6.18;1.85;;;5.90;65.70;;;;;;5075135;28;20119;-66
2021/04/05 09:16:34;;;;;;;8.85;2.05;;;5.90;60.70;;;;;;5076002;28;20048;-66
2021/04/05 09:19:21;;;;;;;7.25;1.75;;;5.80;61.50;;;;;;5075163;28;20028;-66
2021/04/05 09:22:18;;;;;;;6.55;2.13;;;5.80;61.30;;;;;;5075578;28;20479;-66
2021/04/05 09:24:50;;;;;;;8.18;2.10;;;5.70;62.90;;;;;;5034671;28;20476;-66
2021/04/05 09:27:15;;;;;;;1.55;1.00;;;5.70;63.30;;;;;;5071622;28;20124;-66
2021/04/05 09:29:55;;;;;;;5.80;1.58;;;5.70;66.00;;;;;;5075664;28;20056;-66
2021/04/05 09:32:26;;;;;;;1.75;0.85;;;5.70;64.80;;;;;;5075886;28;20025;-66
2021/04/05 09:35:21;;;;;;;7.18;1.60;;;5.70;64.00;;;;;;5075010;28;20074;-66
2021/04/05 09:37:59;;;;;;;8.68;1.70;;;5.70;61.40;;;;;;5054911;28;20056;-66
2021/04/05 09:40:36;;;;;;;13.00;2.22;;;5.80;61.40;;;;;;5074687;28;20031;-66
2021/04/05 09:43:39;;;;;;;4.22;1.58;;;5.80;60.90;;;;;;5075330;28;20467;-66
2021/04/05 09:46:22;;;;;;;4.43;1.25;;;5.80;61.10;;;;;;5035288;28;20551;-67
2021/04/05 09:49:10;;;;;;;5.68;1.30;;;5.90;65.10;;;;;;5074399;28;20131;-66
2021/04/05 09:52:05;;;;;;;8.57;1.42;;;5.90;64.90;;;;;;5062337;28;20079;-66
2021/04/05 09:54:47;;;;;;;12.75;1.50;;;5.90;61.80;;;;;;5074167;28;20024;-66
2021/04/05 09:57:43;;;;;;;7.63;1.63;;;5.90;61.30;;;;;;5075057;28;20025;-66
2021/04/05 10:00:10;;;;;;;7.90;2.08;;;5.90;59.90;;;;;;5075214;28;20043;-66
2021/04/05 10:02:54;;;;;;;11.02;2.00;;;5.90;57.60;;;;;;5074297;28;20472;-66
2021/04/05 10:05:20;;;;;;;;;;;5.90;61.10;;;;;;5063669;28;20036;-66
2021/04/05 10:07:48;;;;;;;4.97;1.13;;;5.90;62.60;;;;;;5074692;28;19924;-66
2021/04/05 10:10:15;;;;;;;3.20;0.60;;;5.90;62.60;;;;;;5074077;28;20078;-66
2021/04/05 10:12:44;;;;;;;5.82;1.27;;;5.80;65.30;;;;;;5074944;28;20040;-66
2021/04/05 10:15:22;;;;;;;2.35;0.90;;;5.90;61.90;;;;;;5074057;28;20028;-66
2021/04/05 10:17:53;;;;;;;6.53;1.42;;;5.90;64.20;;;;;;5074817;28;20028;-66
2021/04/05 10:20:24;;;;;;;6.22;1.38;;;5.90;64.70;;;;;;5060214;28;20077;-66
2021/04/05 10:22:50;;;;;;;4.18;1.20;;;5.90;64.90;;;;;;5074159;28;20036;-66
2021/04/05 10:25:21;;;;;;;3.15;1.00;;;6.00;65.70;;;;;;5074417;28;20028;-66
2021/04/05 10:27:52;;;;;;;6.03;1.60;;;6.00;66.40;;;;;;5067321;28;20124;-66
2021/04/05 10:30:19;;;;;;;4.72;1.15;;;6.10;66.20;;;;;;5067604;28;20039;-66
2021/04/05 10:32:46;;;;;;;4.65;1.27;;;6.10;68.20;;;;;;5074334;28;20495;-66
2021/04/05 10:35:15;;;;;;;7.63;1.58;;;6.10;68.30;;;;;;5074228;28;20082;-66
2021/04/05 10:37:44;;;;;;;3.97;1.33;;;6.20;67.30;;;;;;5073411;28;20554;-66
2021/04/05 10:40:15;;;;;;;3.30;0.77;;;6.20;67.40;;;;;;5074398;28;20365;-66
2021/04/05 10:42:48;;;;;;;9.77;1.17;;;6.20;67.60;;;;;;5074152;28;20105;-66
2021/04/05 10:45:23;;;;;;;2.58;1.27;;;6.20;68.30;;;;;;5073405;28;20416;-66
2021/04/05 10:48:03;;;;;;;3.50;1.17;;;6.10;68.90;;;;;;5073794;28;20041;-66
2021/04/05 10:50:34;;;;;;;7.55;1.70;;;6.10;69.40;;;;;;5072922;28;20103;-66
2021/04/05 10:53:13;;;;;;;4.75;1.30;;;6.10;69.50;;;;;;5073886;28;20121;-66
2021/04/05 10:55:42;;;;;;;7.47;1.10;;;6.00;70.00;;;;;;5073951;28;20036;-66
2021/04/05 10:58:14;;;;;;;5.10;1.20;;;5.90;70.30;;;;;;5073226;28;20020;-66
2021/04/05 11:00:42;;;;;;;2.72;1.02;;;5.90;70.60;;;;;;5073265;28;20174;-66
2021/04/05 11:03:20;;;;;;;4.90;1.40;;;5.90;70.10;;;;;;5073770;28;20070;-66
2021/04/05 11:05:56;;;;;;;3.97;1.23;;;5.90;68.20;;;;;;5073069;28;20024;-66
2021/04/05 11:08:27;;;;;;;11.07;1.52;;;5.90;68.90;;;;;;5059163;28;20545;-66
2021/04/05 11:11:14;;;;;;;4.88;2.10;;;5.90;68.50;;;;;;5073833;28;20032;-66
2021/04/05 11:13:44;;;;;;;15.93;2.60;;;6.00;67.30;;;;;;5059940;28;20029;-66
2021/04/05 11:16:12;;;;;;;10.65;1.90;;;6.00;67.40;;;;;;5073566;28;20025;-66
2021/04/05 11:18:46;;;;;;;4.63;1.33;;;6.00;66.10;;;;;;5072662;28;20101;-66
2021/04/05 11:21:15;;;;;;;6.95;1.88;;;6.10;67.90;;;;;;5073579;28;20657;-66
2021/04/05 11:23:41;;;;;;;7.80;1.60;;;6.10;68.80;;;;;;5073393;28;20102;-66
2021/04/05 11:26:09;;;;;;;7.93;1.35;;;6.20;68.30;;;;;;5068417;28;20047;-66
2021/04/05 11:28:37;;;;;;;4.93;1.08;;;6.20;68.00;;;;;;5073323;28;20044;-66
2021/04/05 11:31:17;;;;;;;6.65;1.50;;;6.20;69.20;;;;;;5073304;28;20050;-66
2021/04/05 11:33:50;;;;;;;11.25;2.75;;;6.30;69.50;;;;;;5072417;28;20125;-67
2021/04/05 11:36:17;;;;;;;5.65;1.90;;;6.40;68.10;;;;;;5073047;28;20020;-66
2021/04/05 11:38:47;;;;;;;7.25;1.75;;;6.40;62.80;;;;;;5072311;28;20090;-65
2021/04/05 11:41:17;;;;;;;6.82;1.92;;;6.30;67.70;;;;;;5067347;28;20036;-66
2021/04/05 11:43:49;;;;;;;14.63;2.85;;;6.40;65.70;;;;;;5071735;28;20146;-66
2021/04/05 11:46:16;;;;;;;9.50;2.65;;;6.40;66.40;;;;;;5072365;28;20484;-66
2021/04/05 11:48:43;;;;;;;21.30;1.83;;;6.40;67.40;;;;;;5061126;28;20488;-66
2021/04/05 11:51:11;;;;;;;11.98;1.40;;;6.40;67.70;;;;;;5065088;28;20103;-66
2021/04/05 11:53:48;;;;;;;10.90;1.92;;;6.40;69.40;;;;;;5067604;28;20098;-66
2021/04/05 11:56:16;;;;;;;7.88;1.75;;;6.40;69.50;;;;;;5072465;28;20039;-66
2021/04/05 11:58:45;;;;;;;3.10;0.73;;;6.40;68.90;;;;;;5059001;28;20111;-67
2021/04/05 12:01:16;;;;;;;1.65;0.77;;;6.40;69.20;;;;;;5063373;28;20064;-67
2021/04/05 12:03:46;;;;;;;2.58;0.88;;;6.40;69.00;;;;;;5071619;28;20036;-67
2021/04/05 12:06:39;;;;;;;4.20;1.65;;;6.40;64.80;;;;;;5071777;28;20023;-67
2021/04/05 12:09:10;;;;;;;2.72;1.40;;;6.40;58.30;;;;;;5052445;28;20480;-72
2021/04/05 12:12:04;;;;;;;4.75;0.80;;;6.40;58.20;;;;;;5071532;28;20039;-68
2021/04/05 12:14:31;;;;;;;1.63;0.90;;;6.40;58.70;;;;;;5066010;28;20038;-67
2021/04/05 12:17:00;;;;;;;2.10;0.80;;;6.40;61.40;;;;;;5069801;28;20021;-74
2021/04/05 12:19:33;;;;;;;5.88;1.15;;;6.40;62.00;;;;;;5066562;28;20039;-66
2021/04/05 12:22:00;;;;;;;8.35;2.40;;;6.50;58.10;;;;;;5070952;28;20112;-65
2021/04/05 12:24:35;;;;;;;4.10;1.20;;;6.50;60.80;;;;;;5071541;28;20032;-66
2021/04/05 12:27:05;;;;;;;2.33;1.27;;;6.60;64.30;;;;;;5071079;28;20457;-66
2021/04/05 12:29:32;;;;;;;9.88;2.10;;;6.60;65.10;;;;;;5067503;28;20399;-67
2021/04/05 12:31:59;;;;;;;6.22;1.60;;;6.60;65.80;;;;;;5061716;28;20127;-65
2021/04/05 12:34:30;;;;;;;2.47;1.17;;;6.60;67.20;;;;;;5059402;28;20054;-65
2021/04/05 12:36:59;;;;;;;3.88;1.05;;;6.60;68.10;;;;;;5066841;28;20040;-65
2021/04/05 12:39:33;;;;;;;13.32;2.15;;;6.60;68.60;;;;;;5063954;28;20028;-66
2021/04/05 12:42:06;;;;;;;7.18;1.60;;;6.60;68.80;;;;;;5067457;28;20029;-65
2021/04/05 12:44:34;;;;;;;3.70;1.77;;;6.60;69.50;;;;;;5056420;28;20068;-65
2021/04/05 12:47:03;;;;;;;9.32;1.67;;;6.60;69.70;;;;;;5066574;28;20048;-65
2021/04/05 12:49:34;;;;;;;8.13;2.33;;;6.70;70.30;;;;;;5067928;28;20419;-65
2021/04/05 12:52:11;;;;;;;2.58;1.10;;;6.60;68.80;;;;;;5066578;28;20108;-70
2021/04/05 12:54:42;;;;;;;5.97;1.17;;;6.70;63.50;;;;;;5067367;28;20044;-69
2021/04/05 12:57:10;;;;;;;3.30;1.15;;;6.60;65.20;;;;;;5066004;28;20383;-68
2021/04/05 12:59:36;;;;;;;2.22;0.75;;;6.60;63.00;;;;;;5065497;28;20115;-68
2021/04/05 13:02:23;;;;;;;3.08;0.98;;;6.60;65.50;;;;;;5065488;28;20040;-66
2021/04/05 13:04:54;;;;;;;1.40;0.85;;;6.60;63.90;;;;;;5063698;28;20082;-66
2021/04/05 13:07:45;;;;;;;2.28;0.50;;;6.60;64.20;;;;;;5065002;28;20379;-66
2021/04/05 13:10:23;;;;;;;4.38;1.13;;;6.60;66.50;;;;;;5054719;28;20041;-64
2021/04/05 13:12:53;;;;;;;3.90;1.10;;;6.60;66.40;;;;;;5066085;28;20119;-66
2021/04/05 13:15:30;;;;;;;5.00;1.27;;;6.60;66.20;;;;;;5072817;28;20353;-66
2021/04/05 13:18:08;;;;;;;2.15;0.95;;;6.60;66.40;;;;;;5074413;28;20426;-66
2021/04/05 13:20:40;;;;;;;7.15;1.40;;;6.60;67.50;;;;;;5062380;28;20036;-66
2021/04/05 13:23:08;;;;;;;1.52;0.75;;;6.60;67.60;;;;;;5054817;28;20044;-66
2021/04/05 13:25:39;;;;;;;7.15;1.70;;;6.50;68.30;;;;;;5054121;28;20098;-65
2021/04/05 13:28:07;;;;;;;1.73;1.00;;;6.60;68.40;;;;;;5052971;28;20091;-66
2021/04/05 13:30:36;;;;;;;5.00;1.45;;;6.60;68.40;;;;;;5054020;28;20082;-66
2021/04/05 13:33:05;;;;;;;4.32;1.15;;;6.60;69.40;;;;;;5053250;28;20033;-66